メインページ
METAR-TAF:

METAR-TAF

空港 :

サン=ドニ, レユニオン

ローラン・ギャロス空港

緯度: 20-53S, 経度: 055-31E, 海抜: 21m

現時点の気象観測

当レポートは21分前の01:30(UTC)に作成
南/南西の風 5kt
気温 23°C
湿度 94%
気圧 998 hPa
視程10km以上
小雨

METAR: FMEE 180130Z AUTO 20005KT 9999 -RA BKN040/// BKN058/// OVC084/// ///TCU 23/22 Q0998 TEMPO 26010KT 3000 SCT015CB OVC040

時間: 05:51 (01:51 UTC)

予報

当レポートは2時間51分前の23:00(UTC)に作成
予報は18日の 00時(UTC)から 19日の 06時(UTC)まで有効
東/南東の風 5kt
視程10km以上
高度2500ftの雲はほとんどない
高度5000ftの雲は散在している
高度8000ftの千切れ雲あり, 塔状積雲.
18日の 00時(UTC)から 18日の 10時(UTC)まで一時的に
西の風 10kt
視程: 3000m
高度1500ftの雲は散在している, 積乱雲.
高度4000ftの曇り
18日の 10時(UTC)から 18日の 12時(UTC)まで徐々に
西の風 25kt、最大35ktの突風を伴う
確率 40% :
18日の 12時(UTC)から 19日の 06時(UTC)まで一時的に
西/南西の風 35kt、最大45ktの突風を伴う
視程: 1000m
高度1500ftの雲は散在している, 積乱雲.
高度2000ftの曇り, 塔状積雲.
激しい雷雨, 雨

TAF: FMEE 172300Z 1800/1906 11005KT 9999 RA FEW025 SCT050 BKN080TCU TEMPO 1800/1810 26010KT 3000 SCT015CB OVC040 BECMG 1810/1812 28025G35KT PROB40 TEMPO 1812/1906 25035G45KT 1000 TSRA SCT015CB OVC020TCU

4,000以上の空港の気象観測と天気予報(METAR報とTAF報)

利用可能な観測所は地図上に黄色い丸と赤い丸で示す。

丸の上にカーソルを重ねると観測所名を参照できる。

次にクリックすると気象観測と天気予報を参照できる。

マップの切り替え:黒色「×」印の緑ボタンをクリックして拡大、「-」印の緑ボタンをクリックして縮小、緑色の三角印をクリックして隣りの地図に切り替え


METAR-TAF: